Terminal Aerodrome Forecast
Issued by NWS Anchorage, AK

Home | Current Version | Previous Version | Text Only | Print | Product List | Glossary On
Versions: 1 2 3 4 5 6 7 8 9 10 11 12 13 14 15 16 17 18 19 20 21 22
000
FTAK31 PANC 241421 AAB
TAFANC
TAF AMD
PANC 241421Z 2414/2518 15018G28KT P6SM BKN090 WS020/13048KT
     FM242000 16026G42KT P6SM FEW050 BKN070 WS020/14060KT
     FM250200 16024G34KT 6SM -RA SCT025 BKN035
     FM250500 17022G32KT P6SM SCT035 BKN070=

USA.gov is the U.S. government's official web portal to all federal, state and local government web resources and services.